createdAt,value
2018-07-29T00:00:45.905Z,19.31
2018-07-29T00:01:45.971Z,19.27
2018-07-29T00:03:38.969Z,19.29
2018-07-29T00:04:39.032Z,19.27
2018-07-29T00:06:32.025Z,19.36
2018-07-29T00:07:32.095Z,19.30
2018-07-29T00:09:25.090Z,19.29
2018-07-29T00:10:25.152Z,19.26
2018-07-29T00:12:18.148Z,19.26
2018-07-29T00:13:18.206Z,19.26
2018-07-29T00:15:11.199Z,19.26
2018-07-29T00:16:11.265Z,19.19
2018-07-29T00:18:04.264Z,19.36
2018-07-29T00:19:04.323Z,19.22
2018-07-29T00:20:57.316Z,19.40
2018-07-29T00:21:57.380Z,19.31
2018-07-29T00:23:50.381Z,19.39
2018-07-29T00:24:50.441Z,19.40
2018-07-29T00:26:43.434Z,19.40
2018-07-29T00:27:43.501Z,19.31
2018-07-29T00:29:36.509Z,19.12
2018-07-29T00:30:36.569Z,19.09
2018-07-29T00:32:29.567Z,19.00
2018-07-29T00:33:29.625Z,19.00
2018-07-29T00:35:23.131Z,18.90
2018-07-29T00:36:23.190Z,18.89
2018-07-29T00:38:16.196Z,18.90
2018-07-29T00:39:16.247Z,18.96
2018-07-29T00:41:09.247Z,19.09
2018-07-29T00:42:09.310Z,19.04
2018-07-29T00:44:02.310Z,19.15
2018-07-29T00:45:02.369Z,19.18
2018-07-29T00:46:55.363Z,19.26
2018-07-29T00:47:55.427Z,19.40
2018-07-29T00:49:48.427Z,19.39
2018-07-29T00:50:48.486Z,19.36
2018-07-29T00:52:41.486Z,19.36
2018-07-29T00:53:41.542Z,19.31
2018-07-29T00:55:34.537Z,19.24
2018-07-29T00:56:34.601Z,19.26
2018-07-29T00:58:27.600Z,19.19
2018-07-29T00:59:27.658Z,19.24
2018-07-29T01:01:20.650Z,19.26
2018-07-29T01:02:20.717Z,19.22
2018-07-29T01:04:13.715Z,19.24
2018-07-29T01:05:13.773Z,19.22
2018-07-29T01:07:06.767Z,19.27
2018-07-29T01:08:06.831Z,19.18
2018-07-29T01:09:59.832Z,19.08
2018-07-29T01:10:59.888Z,18.95
2018-07-29T01:12:52.889Z,18.81
2018-07-29T01:13:52.947Z,18.84
2018-07-29T01:15:45.941Z,18.83
2018-07-29T01:16:46.003Z,18.83
2018-07-29T01:18:39.005Z,18.83
2018-07-29T01:19:39.061Z,18.83
2018-07-29T01:21:32.058Z,18.89
2018-07-29T01:22:32.122Z,18.89
2018-07-29T01:24:25.133Z,18.84
2018-07-29T01:25:25.180Z,18.83
2018-07-29T01:27:18.172Z,18.88
2018-07-29T01:28:18.237Z,18.93
2018-07-29T01:30:11.239Z,18.95
2018-07-29T01:31:11.294Z,18.86
2018-07-29T01:33:04.294Z,18.95
2018-07-29T01:34:04.353Z,18.89
2018-07-29T01:35:57.855Z,18.84
2018-07-29T01:36:57.921Z,18.88
2018-07-29T01:38:50.915Z,18.93
2018-07-29T01:39:50.975Z,18.88
2018-07-29T01:41:43.968Z,18.83
2018-07-29T01:42:44.031Z,18.81
2018-07-29T01:44:37.032Z,18.77
2018-07-29T01:45:37.091Z,18.75
2018-07-29T01:47:30.084Z,18.77
2018-07-29T01:48:30.146Z,18.70
2018-07-29T01:50:23.146Z,18.70
2018-07-29T01:51:23.205Z,18.78
2018-07-29T01:53:16.200Z,18.68
2018-07-29T01:54:16.265Z,18.68
2018-07-29T01:56:09.252Z,18.70
2018-07-29T01:57:09.316Z,18.63
2018-07-29T01:59:02.317Z,18.74
2018-07-29T02:00:02.377Z,18.73
2018-07-29T02:01:55.370Z,18.74
2018-07-29T02:02:55.430Z,18.73
2018-07-29T02:04:48.431Z,18.84
2018-07-29T02:05:48.488Z,18.73
2018-07-29T02:07:41.488Z,18.77
2018-07-29T02:08:41.552Z,18.80
2018-07-29T02:10:34.551Z,18.80
2018-07-29T02:11:34.607Z,18.81
2018-07-29T02:13:27.607Z,18.83
2018-07-29T02:14:27.665Z,18.71
2018-07-29T02:16:20.657Z,18.73
2018-07-29T02:17:20.721Z,18.75
2018-07-29T02:19:13.721Z,18.77
2018-07-29T02:20:13.779Z,18.78
2018-07-29T02:22:06.773Z,18.83
2018-07-29T02:23:06.835Z,18.73
2018-07-29T02:24:59.833Z,18.71
2018-07-29T02:25:59.895Z,18.77
2018-07-29T02:27:52.883Z,18.83
2018-07-29T02:28:52.949Z,18.77
2018-07-29T02:30:45.949Z,18.62
2018-07-29T02:31:46.005Z,18.60
2018-07-29T02:33:39.008Z,18.62
2018-07-29T02:34:39.061Z,18.71
2018-07-29T02:36:32.058Z,18.58
2018-07-29T02:37:32.121Z,18.50
2018-07-29T02:39:25.120Z,18.58
2018-07-29T02:40:25.270Z,18.53
2018-07-29T02:42:18.170Z,18.55
2018-07-29T02:43:18.234Z,18.55
2018-07-29T02:45:11.271Z,18.59
2018-07-29T02:46:11.291Z,18.56
2018-07-29T02:48:04.286Z,18.59
2018-07-29T02:49:04.348Z,18.63
2018-07-29T02:50:57.347Z,18.56
2018-07-29T02:51:57.404Z,18.59
2018-07-29T02:53:50.407Z,18.55
2018-07-29T02:54:50.467Z,18.55
2018-07-29T02:56:43.455Z,18.44
2018-07-29T02:57:43.519Z,18.47
2018-07-29T02:59:36.517Z,18.37
2018-07-29T03:00:36.575Z,18.50
2018-07-29T03:02:29.571Z,18.45
2018-07-29T03:03:29.633Z,18.52
2018-07-29T03:05:22.632Z,18.49
2018-07-29T03:06:22.699Z,18.50
2018-07-29T03:08:15.682Z,18.49
2018-07-29T03:09:15.746Z,18.47
2018-07-29T03:11:08.745Z,18.49
2018-07-29T03:12:08.800Z,18.40
2018-07-29T03:14:01.800Z,18.43
2018-07-29T03:15:01.880Z,18.49
2018-07-29T03:16:54.851Z,18.49
2018-07-29T03:17:54.932Z,18.43
2018-07-29T03:19:47.914Z,18.47
2018-07-29T03:20:47.974Z,18.53
2018-07-29T03:22:40.964Z,18.55
2018-07-29T03:23:41.027Z,18.52
2018-07-29T03:25:34.028Z,18.43
2018-07-29T03:26:34.085Z,18.45
2018-07-29T03:28:27.078Z,18.41
2018-07-29T03:29:27.142Z,18.47
2018-07-29T03:31:20.140Z,18.33
2018-07-29T03:32:20.197Z,18.35
2018-07-29T03:34:13.196Z,18.38
2018-07-29T03:35:13.252Z,18.31
2018-07-29T03:37:06.244Z,18.41
2018-07-29T03:38:06.307Z,18.35
2018-07-29T03:39:59.308Z,18.40
2018-07-29T03:40:59.366Z,18.31
2018-07-29T03:42:52.358Z,18.34
2018-07-29T03:43:52.421Z,18.35
2018-07-29T03:45:45.425Z,18.35
2018-07-29T03:46:45.480Z,18.31
2018-07-29T03:48:38.477Z,18.41
2018-07-29T03:49:38.540Z,18.34
2018-07-29T03:51:31.540Z,18.40
2018-07-29T03:52:31.598Z,18.41
2018-07-29T03:54:24.593Z,18.37
2018-07-29T03:55:24.652Z,18.37
2018-07-29T03:57:17.651Z,18.40
2018-07-29T03:58:17.711Z,18.33
2018-07-29T04:00:10.708Z,18.35
2018-07-29T04:01:10.775Z,18.37
2018-07-29T04:03:03.757Z,18.40
2018-07-29T04:04:03.827Z,18.41
2018-07-29T04:05:56.830Z,18.40
2018-07-29T04:06:56.885Z,18.49
2018-07-29T04:08:49.878Z,18.47
2018-07-29T04:09:49.940Z,18.47
2018-07-29T04:11:42.939Z,18.49
2018-07-29T04:12:42.995Z,18.53
2018-07-29T04:14:35.996Z,18.59
2018-07-29T04:15:36.053Z,18.56
2018-07-29T04:17:29.046Z,18.52
2018-07-29T04:18:29.110Z,18.53
2018-07-29T04:20:22.112Z,18.59
2018-07-29T04:21:22.174Z,18.65
2018-07-29T04:23:15.164Z,18.63
2018-07-29T04:24:15.227Z,18.60
2018-07-29T04:26:08.224Z,18.77
2018-07-29T04:27:08.281Z,18.70
2018-07-29T04:29:01.274Z,18.70
2018-07-29T04:30:01.340Z,18.84
2018-07-29T04:31:54.336Z,18.80
2018-07-29T04:32:54.396Z,18.80
2018-07-29T04:34:47.397Z,18.80
2018-07-29T04:35:47.457Z,18.81
2018-07-29T04:37:40.451Z,18.77
2018-07-29T04:38:40.511Z,18.90
2018-07-29T04:40:33.511Z,18.90
2018-07-29T04:41:33.569Z,18.90
2018-07-29T04:43:26.566Z,18.95
2018-07-29T04:44:26.632Z,19.00
2018-07-29T04:46:19.623Z,19.00
2018-07-29T04:47:19.684Z,19.14
2018-07-29T04:49:12.675Z,18.99
2018-07-29T04:50:12.739Z,19.08
2018-07-29T04:52:05.737Z,18.98
2018-07-29T04:53:05.795Z,19.02
2018-07-29T04:54:58.802Z,18.98
2018-07-29T04:55:58.859Z,19.11
2018-07-29T04:57:51.856Z,19.15
2018-07-29T04:58:51.916Z,19.14
2018-07-29T05:00:44.914Z,19.27
2018-07-29T05:01:44.993Z,19.16
2018-07-29T05:03:37.968Z,19.18
2018-07-29T05:04:38.028Z,19.14
2018-07-29T05:06:31.031Z,19.18
2018-07-29T05:07:31.085Z,19.24
2018-07-29T05:09:24.076Z,19.22
2018-07-29T05:10:24.141Z,19.19
2018-07-29T05:12:17.139Z,19.26
2018-07-29T05:13:17.199Z,19.18
2018-07-29T05:15:10.195Z,19.36
2018-07-29T05:16:10.256Z,19.30
2018-07-29T05:18:03.252Z,19.24
2018-07-29T05:19:03.313Z,19.26
2018-07-29T05:20:56.311Z,19.27
2018-07-29T05:21:56.370Z,19.27
2018-07-29T05:23:49.367Z,19.36
2018-07-29T05:24:49.428Z,19.31
2018-07-29T05:26:42.426Z,19.31
2018-07-29T05:27:42.485Z,19.33
2018-07-29T05:29:35.481Z,19.37
2018-07-29T05:30:35.548Z,19.39
2018-07-29T05:32:28.546Z,19.34
2018-07-29T05:33:28.603Z,19.45
2018-07-29T05:35:22.113Z,19.41
2018-07-29T05:36:22.167Z,19.45
2018-07-29T05:38:15.164Z,19.52
2018-07-29T05:39:15.225Z,19.51
2018-07-29T05:41:08.230Z,19.62
2018-07-29T05:42:08.293Z,19.62
2018-07-29T05:44:01.282Z,19.56
2018-07-29T05:45:01.345Z,19.56
2018-07-29T05:46:54.343Z,19.59
2018-07-29T05:47:54.401Z,19.64
2018-07-29T05:49:47.394Z,19.74
2018-07-29T05:50:47.457Z,19.82
2018-07-29T05:52:40.457Z,19.88
2018-07-29T05:53:40.515Z,19.92
2018-07-29T05:55:33.525Z,19.95
2018-07-29T05:56:33.573Z,20.10
2018-07-29T05:58:26.585Z,20.21
2018-07-29T05:59:26.649Z,20.14
2018-07-29T06:01:19.645Z,20.14
2018-07-29T06:02:19.704Z,20.24
2018-07-29T06:04:12.717Z,20.44
2018-07-29T06:05:12.760Z,20.56
2018-07-29T06:07:05.763Z,20.66
2018-07-29T06:08:05.818Z,20.87
2018-07-29T06:09:58.809Z,20.95
2018-07-29T06:10:58.873Z,21.12
2018-07-29T06:12:51.875Z,21.00
2018-07-29T06:13:51.933Z,20.96
2018-07-29T06:15:44.928Z,20.77
2018-07-29T06:16:44.989Z,20.74
2018-07-29T06:18:37.981Z,20.81
2018-07-29T06:19:38.048Z,20.82
2018-07-29T06:21:31.051Z,20.70
2018-07-29T06:22:31.105Z,21.02
2018-07-29T06:24:24.097Z,20.96
2018-07-29T06:25:24.163Z,20.99
2018-07-29T06:27:17.210Z,21.05
2018-07-29T06:28:17.226Z,21.03
2018-07-29T06:30:10.218Z,21.07
2018-07-29T06:31:10.285Z,21.30
2018-07-29T06:33:03.284Z,21.46
2018-07-29T06:34:03.346Z,21.55
2018-07-29T06:35:56.854Z,22.47
2018-07-29T06:36:56.910Z,24.11
2018-07-29T06:38:49.901Z,25.69
2018-07-29T06:39:49.968Z,26.25
2018-07-29T06:41:42.970Z,27.08
2018-07-29T06:42:43.030Z,27.20
2018-07-29T06:44:36.049Z,27.05
2018-07-29T06:45:36.094Z,27.32
2018-07-29T06:47:29.103Z,28.62
2018-07-29T06:48:29.164Z,29.19
2018-07-29T06:50:22.172Z,29.10
2018-07-29T06:51:22.237Z,28.84
2018-07-29T06:53:15.244Z,27.80
2018-07-29T06:54:15.309Z,27.03
2018-07-29T06:56:08.318Z,26.25
2018-07-29T06:57:08.385Z,26.47
2018-07-29T06:59:01.390Z,26.93
2018-07-29T07:00:01.462Z,27.52
2018-07-29T07:01:54.471Z,28.94
2018-07-29T07:02:54.535Z,29.13
2018-07-29T07:04:47.542Z,29.26
2018-07-29T07:05:47.613Z,29.82
2018-07-29T07:07:40.626Z,29.95
2018-07-29T07:08:40.691Z,29.35
2018-07-29T07:10:33.790Z,29.26
2018-07-29T07:11:33.775Z,28.91
2018-07-29T07:13:26.796Z,29.53
2018-07-29T07:14:26.863Z,29.90
2018-07-29T07:16:19.881Z,30.54
2018-07-29T07:17:19.946Z,30.50
2018-07-29T07:19:12.957Z,30.69
2018-07-29T07:20:13.029Z,30.54
2018-07-29T07:22:06.056Z,30.12
2018-07-29T07:23:06.122Z,30.30
2018-07-29T07:24:59.134Z,30.78
2018-07-29T07:25:59.253Z,30.16
2018-07-29T07:27:52.234Z,30.34
2018-07-29T07:28:52.295Z,30.09
2018-07-29T07:30:45.308Z,30.05
2018-07-29T07:31:45.388Z,30.83
2018-07-29T07:33:38.407Z,30.34
2018-07-29T07:34:38.504Z,29.97
2018-07-29T07:36:31.492Z,29.95
2018-07-29T07:37:31.560Z,29.63
2018-07-29T07:39:24.574Z,30.00
2018-07-29T07:40:24.652Z,29.97
2018-07-29T07:42:17.671Z,30.85
2018-07-29T07:43:17.739Z,29.97
2018-07-29T07:45:10.755Z,30.54
2018-07-29T07:46:10.834Z,31.02
2018-07-29T07:48:03.852Z,31.80
2018-07-29T07:49:03.919Z,31.61
2018-07-29T07:50:56.940Z,30.70
2018-07-29T07:51:57.009Z,30.97
2018-07-29T07:53:50.031Z,31.74
2018-07-29T07:54:50.100Z,31.93
2018-07-29T07:56:43.119Z,31.37
2018-07-29T07:57:43.190Z,31.22
2018-07-29T07:59:36.203Z,29.61
2018-07-29T08:00:36.281Z,29.71
2018-07-29T08:02:29.299Z,29.19
2018-07-29T08:03:29.369Z,29.10
2018-07-29T08:05:22.384Z,29.69
2018-07-29T08:06:22.457Z,30.46
2018-07-29T08:08:15.483Z,31.49
2018-07-29T08:09:15.566Z,31.42
2018-07-29T08:11:08.570Z,32.21
2018-07-29T08:12:08.646Z,31.07
2018-07-29T08:14:01.666Z,31.89
2018-07-29T08:15:01.737Z,32.89
2018-07-29T08:16:54.757Z,33.07
2018-07-29T08:17:54.828Z,31.78
2018-07-29T08:19:47.851Z,30.69
2018-07-29T08:20:47.915Z,32.01
2018-07-29T08:22:40.943Z,32.58
2018-07-29T08:23:41.014Z,33.07
2018-07-29T08:25:34.034Z,32.77
2018-07-29T08:26:34.104Z,32.86
2018-07-29T08:28:27.131Z,31.99
2018-07-29T08:29:27.202Z,30.63
2018-07-29T08:31:20.218Z,29.94
2018-07-29T08:32:20.293Z,30.78
2018-07-29T08:34:13.315Z,32.52
2018-07-29T08:35:13.410Z,32.18
2018-07-29T08:37:06.407Z,33.07
2018-07-29T08:38:06.479Z,33.59
2018-07-29T08:39:59.491Z,31.54
2018-07-29T08:40:59.568Z,30.83
2018-07-29T08:42:52.592Z,30.63
2018-07-29T08:43:52.660Z,31.15
2018-07-29T08:45:45.684Z,31.29
2018-07-29T08:46:45.756Z,31.52
2018-07-29T08:48:38.783Z,32.34
2018-07-29T08:49:38.853Z,32.70
2018-07-29T08:51:31.861Z,32.16
2018-07-29T08:52:31.940Z,32.19
2018-07-29T08:54:24.968Z,31.66
2018-07-29T08:55:25.032Z,31.64
2018-07-29T08:57:18.078Z,31.28
2018-07-29T08:58:18.170Z,31.51
2018-07-29T09:00:11.154Z,31.12
2018-07-29T09:01:11.231Z,31.66
2018-07-29T09:03:04.250Z,32.33
2018-07-29T09:04:04.390Z,32.14
2018-07-29T09:05:57.372Z,31.49
2018-07-29T09:06:57.415Z,32.82
2018-07-29T09:08:50.438Z,32.15
2018-07-29T09:09:50.503Z,32.60
2018-07-29T09:11:43.522Z,32.85
2018-07-29T09:12:43.601Z,33.57
2018-07-29T09:14:36.635Z,34.58
2018-07-29T09:15:36.694Z,34.66
2018-07-29T09:17:29.736Z,34.18
2018-07-29T09:18:29.789Z,34.40
2018-07-29T09:20:22.814Z,33.79
2018-07-29T09:21:22.894Z,33.62
2018-07-29T09:23:15.920Z,32.15
2018-07-29T09:24:16.008Z,31.33
2018-07-29T09:26:09.007Z,30.90
2018-07-29T09:27:09.083Z,31.73
2018-07-29T09:29:02.118Z,32.14
2018-07-29T09:30:02.186Z,31.34
2018-07-29T09:31:55.216Z,31.61
2018-07-29T09:32:55.301Z,31.78
2018-07-29T09:34:48.325Z,31.10
2018-07-29T09:35:48.385Z,31.39
2018-07-29T09:37:41.402Z,30.25
2018-07-29T09:38:41.475Z,29.78
2018-07-29T09:40:34.498Z,29.94
2018-07-29T09:41:34.564Z,29.94
2018-07-29T09:43:27.586Z,29.08
2018-07-29T09:44:27.652Z,29.20
2018-07-29T09:46:20.669Z,29.42
2018-07-29T09:47:20.737Z,29.90
2018-07-29T09:49:13.754Z,30.10
2018-07-29T09:50:13.822Z,29.93
2018-07-29T09:52:06.832Z,29.93
2018-07-29T09:53:06.901Z,29.91
2018-07-29T09:54:59.964Z,30.44
2018-07-29T09:55:59.998Z,30.83
2018-07-29T09:57:53.003Z,31.36
2018-07-29T09:58:53.074Z,31.28
2018-07-29T10:00:46.142Z,31.15
2018-07-29T10:01:46.158Z,31.12
2018-07-29T10:03:39.225Z,30.59
2018-07-29T10:04:39.257Z,30.25
2018-07-29T10:06:32.289Z,30.00
2018-07-29T10:07:32.338Z,29.78
2018-07-29T10:09:26.171Z,29.51
2018-07-29T10:10:25.955Z,29.69
2018-07-29T10:12:19.465Z,30.08
2018-07-29T10:13:19.513Z,30.34
2018-07-29T10:15:14.050Z,30.59
2018-07-29T10:16:14.103Z,30.54
2018-07-29T10:18:07.112Z,30.50
2018-07-29T10:19:07.182Z,30.59
2018-07-29T10:21:00.205Z,30.48
2018-07-29T10:22:00.255Z,30.24
2018-07-29T10:23:53.266Z,30.53
2018-07-29T10:24:53.340Z,30.46
2018-07-29T10:26:46.364Z,30.62
2018-07-29T10:27:46.416Z,30.75
2018-07-29T10:29:39.449Z,30.96
2018-07-29T10:30:39.500Z,31.20
2018-07-29T10:32:32.510Z,30.68
2018-07-29T10:33:32.580Z,30.55
2018-07-29T10:35:25.601Z,31.05
2018-07-29T10:36:25.669Z,31.10
2018-07-29T10:38:18.678Z,31.34
2018-07-29T10:39:18.977Z,31.20
2018-07-29T10:41:11.763Z,31.40
2018-07-29T10:42:11.827Z,31.52
2018-07-29T10:44:04.835Z,31.66
2018-07-29T10:45:04.908Z,31.74
2018-07-29T10:46:57.970Z,32.23
2018-07-29T10:47:57.994Z,32.09
2018-07-29T10:49:51.005Z,32.31
2018-07-29T10:50:51.078Z,32.23
2018-07-29T10:52:44.095Z,31.87
2018-07-29T10:53:44.156Z,31.81
2018-07-29T10:55:37.174Z,31.71
2018-07-29T10:56:37.240Z,31.71
2018-07-29T10:58:30.296Z,31.58
2018-07-29T10:59:30.322Z,31.61
2018-07-29T11:01:23.354Z,31.61
2018-07-29T11:02:23.404Z,31.44
2018-07-29T11:04:16.415Z,31.20
2018-07-29T11:05:16.488Z,31.33
2018-07-29T11:07:09.506Z,30.91
2018-07-29T11:08:09.573Z,30.59
2018-07-29T11:10:02.582Z,30.62
2018-07-29T11:11:02.654Z,30.61
2018-07-29T11:12:55.686Z,30.16
2018-07-29T11:13:55.731Z,29.97
2018-07-29T11:15:48.741Z,30.27
2018-07-29T11:16:48.812Z,30.30
2018-07-29T11:18:41.830Z,30.48
2018-07-29T11:19:41.893Z,30.54
2018-07-29T11:21:34.929Z,30.73
2018-07-29T11:22:34.980Z,30.73
2018-07-29T11:24:27.991Z,30.91
2018-07-29T11:25:28.063Z,30.92
2018-07-29T11:27:21.079Z,30.77
2018-07-29T11:28:21.185Z,30.57
2018-07-29T11:30:14.156Z,30.75
2018-07-29T11:31:14.225Z,30.59
2018-07-29T11:33:07.239Z,30.47
2018-07-29T11:34:07.307Z,30.69
2018-07-29T11:36:00.319Z,30.70
2018-07-29T11:37:00.379Z,30.69
2018-07-29T11:38:53.400Z,30.92
2018-07-29T11:39:53.462Z,31.10
2018-07-29T11:41:46.553Z,31.29
2018-07-29T11:42:46.543Z,31.52
2018-07-29T11:44:39.558Z,31.29
2018-07-29T11:45:39.622Z,31.17
2018-07-29T11:47:32.638Z,31.22
2018-07-29T11:48:32.703Z,30.81
2018-07-29T11:50:25.712Z,30.80
2018-07-29T11:51:25.783Z,30.77
2018-07-29T11:53:18.810Z,30.70
2018-07-29T11:54:18.860Z,31.09
2018-07-29T11:56:11.870Z,31.06
2018-07-29T11:57:11.954Z,30.99
2018-07-29T11:59:04.963Z,30.84
2018-07-29T12:00:05.040Z,30.96
2018-07-29T12:01:58.035Z,31.15
2018-07-29T12:02:58.167Z,31.14
2018-07-29T12:04:51.126Z,31.03
2018-07-29T12:05:51.193Z,31.02
2018-07-29T12:07:44.204Z,30.97
2018-07-29T12:08:44.274Z,31.02
2018-07-29T12:10:37.293Z,31.36
2018-07-29T12:11:37.359Z,31.34
2018-07-29T12:13:30.389Z,31.46
2018-07-29T12:14:30.431Z,31.27
2018-07-29T12:16:23.448Z,31.37
2018-07-29T12:17:23.552Z,31.34
2018-07-29T12:19:16.542Z,31.06
2018-07-29T12:20:16.597Z,31.09
2018-07-29T12:22:09.598Z,31.12
2018-07-29T12:23:09.671Z,30.90
2018-07-29T12:25:02.684Z,30.94
2018-07-29T12:26:02.748Z,30.66
2018-07-29T12:27:55.902Z,30.46
2018-07-29T12:28:55.827Z,30.57
2018-07-29T12:30:48.842Z,30.57
2018-07-29T12:31:48.903Z,30.63
2018-07-29T12:33:41.919Z,30.54
2018-07-29T12:34:41.987Z,30.48
2018-07-29T12:36:35.006Z,30.90
2018-07-29T12:37:35.065Z,31.07
2018-07-29T12:39:28.090Z,31.22
2018-07-29T12:40:28.154Z,31.22
2018-07-29T12:42:21.681Z,31.12
2018-07-29T12:43:21.806Z,31.07
2018-07-29T12:45:14.774Z,30.70
2018-07-29T12:46:14.842Z,30.59
2018-07-29T12:48:07.848Z,30.59
2018-07-29T12:49:07.997Z,30.61
2018-07-29T12:51:00.939Z,30.63
2018-07-29T12:52:01.010Z,30.51
2018-07-29T12:53:54.019Z,30.35
2018-07-29T12:54:54.079Z,30.21
2018-07-29T12:56:47.094Z,30.21
2018-07-29T12:57:47.177Z,30.18
2018-07-29T12:59:40.170Z,30.13
2018-07-29T13:00:40.236Z,30.18
2018-07-29T13:02:33.245Z,30.06
2018-07-29T13:03:33.312Z,30.13
2018-07-29T13:05:26.345Z,29.90
2018-07-29T13:06:26.388Z,29.93
2018-07-29T13:08:19.395Z,29.93
2018-07-29T13:09:19.463Z,30.06
2018-07-29T13:11:12.478Z,30.16
2018-07-29T13:12:12.550Z,30.40
2018-07-29T13:14:05.547Z,30.69
2018-07-29T13:15:05.617Z,30.66
2018-07-29T13:16:58.630Z,30.72
2018-07-29T13:17:58.694Z,30.62
2018-07-29T13:19:51.709Z,30.50
2018-07-29T13:20:51.773Z,30.32
2018-07-29T13:22:44.782Z,30.18
2018-07-29T13:23:44.848Z,30.25
2018-07-29T13:25:37.907Z,30.13
2018-07-29T13:26:37.925Z,30.13
2018-07-29T13:28:30.936Z,30.09
2018-07-29T13:29:31.006Z,30.08
2018-07-29T13:31:24.036Z,30.09
2018-07-29T13:32:24.087Z,29.98
2018-07-29T13:34:17.087Z,29.87
2018-07-29T13:35:17.159Z,29.87
2018-07-29T13:37:10.172Z,29.69
2018-07-29T13:38:10.235Z,29.57
2018-07-29T13:40:03.246Z,29.56
2018-07-29T13:41:03.312Z,29.60
2018-07-29T13:42:56.825Z,29.65
2018-07-29T13:43:56.979Z,29.81
2018-07-29T13:45:49.910Z,29.81
2018-07-29T13:46:49.981Z,29.79
2018-07-29T13:48:42.977Z,29.44
2018-07-29T13:49:43.045Z,29.41
2018-07-29T13:51:36.064Z,29.32
2018-07-29T13:52:36.129Z,29.47
2018-07-29T13:54:29.347Z,29.60
2018-07-29T13:55:29.198Z,29.69
2018-07-29T13:57:22.419Z,29.79
2018-07-29T13:58:22.272Z,29.79
2018-07-29T14:00:15.468Z,29.94
2018-07-29T14:01:15.352Z,29.88
2018-07-29T14:03:08.519Z,30.02
2018-07-29T14:04:08.430Z,29.98
2018-07-29T14:06:01.649Z,30.00
2018-07-29T14:07:01.506Z,30.12
2018-07-29T14:08:54.651Z,30.02
2018-07-29T14:09:54.583Z,29.94
2018-07-29T14:11:47.616Z,30.13
2018-07-29T14:12:47.657Z,30.05
2018-07-29T14:14:40.837Z,30.06
2018-07-29T14:15:40.736Z,30.06
2018-07-29T14:17:33.927Z,30.21
2018-07-29T14:18:33.825Z,30.31
2018-07-29T14:20:27.062Z,30.24
2018-07-29T14:21:26.888Z,30.21
2018-07-29T14:23:20.067Z,30.05
2018-07-29T14:24:19.980Z,29.88
2018-07-29T14:26:13.185Z,29.93
2018-07-29T14:27:13.051Z,29.72
2018-07-29T14:29:06.247Z,29.72
2018-07-29T14:30:06.145Z,29.72
2018-07-29T14:31:59.320Z,29.81
2018-07-29T14:32:59.203Z,29.91
2018-07-29T14:34:52.324Z,29.75
2018-07-29T14:35:52.300Z,29.71
2018-07-29T14:37:45.421Z,29.65
2018-07-29T14:38:45.362Z,29.66
2018-07-29T14:40:38.521Z,29.72
2018-07-29T14:41:38.437Z,29.72
2018-07-29T14:43:31.454Z,29.66
2018-07-29T14:44:31.527Z,29.66
2018-07-29T14:46:24.718Z,29.82
2018-07-29T14:47:24.636Z,29.71
2018-07-29T14:49:17.622Z,29.56
2018-07-29T14:50:17.666Z,29.65
2018-07-29T14:52:10.845Z,29.56
2018-07-29T14:53:10.763Z,29.71
2018-07-29T14:55:03.927Z,29.91
2018-07-29T14:56:03.819Z,29.94
2018-07-29T14:57:56.992Z,29.88
2018-07-29T14:58:56.895Z,29.84
2018-07-29T15:00:50.094Z,29.94
2018-07-29T15:01:49.971Z,29.87
2018-07-29T15:03:43.968Z,30.03
2018-07-29T15:04:43.058Z,29.97
2018-07-29T15:06:36.239Z,29.97
2018-07-29T15:07:36.133Z,29.93
2018-07-29T15:09:29.349Z,30.00
2018-07-29T15:10:29.253Z,30.05
2018-07-29T15:12:22.367Z,30.12
2018-07-29T15:13:22.282Z,30.10
2018-07-29T15:15:15.430Z,30.02
2018-07-29T15:16:15.367Z,29.78
2018-07-29T15:18:08.582Z,29.66
2018-07-29T15:19:08.431Z,29.72
2018-07-29T15:21:01.608Z,29.82
2018-07-29T15:22:01.507Z,29.79
2018-07-29T15:23:54.656Z,29.75
2018-07-29T15:24:54.601Z,29.72
2018-07-29T15:26:47.801Z,29.81
2018-07-29T15:27:47.661Z,29.82
2018-07-29T15:29:40.801Z,29.91
2018-07-29T15:30:40.745Z,29.88
2018-07-29T15:32:33.876Z,29.82
2018-07-29T15:33:33.815Z,29.79
2018-07-29T15:35:26.825Z,29.75
2018-07-29T15:36:26.895Z,29.72
2018-07-29T15:38:20.063Z,29.68
2018-07-29T15:39:19.970Z,29.68
2018-07-29T15:41:12.985Z,29.63
2018-07-29T15:42:13.081Z,29.68
2018-07-29T15:44:06.596Z,29.56
2018-07-29T15:45:06.630Z,29.59
2018-07-29T15:46:59.694Z,29.68
2018-07-29T15:47:59.703Z,29.68
2018-07-29T15:49:52.783Z,29.71
2018-07-29T15:50:52.851Z,29.73
2018-07-29T15:52:46.167Z,29.79
2018-07-29T15:53:45.958Z,29.68
2018-07-29T15:55:44.057Z,29.84
2018-07-29T15:56:42.885Z,29.93
2018-07-29T15:58:33.106Z,30.02
2018-07-29T15:59:33.178Z,30.06
2018-07-29T16:01:26.171Z,30.12
2018-07-29T16:02:26.253Z,30.19
2018-07-29T16:04:19.241Z,30.05
2018-07-29T16:05:19.313Z,30.06
2018-07-29T16:07:12.319Z,30.09
2018-07-29T16:08:12.382Z,30.09
2018-07-29T16:10:05.390Z,30.30
2018-07-29T16:11:05.462Z,30.35
2018-07-29T16:12:58.468Z,30.54
2018-07-29T16:13:58.535Z,30.59
2018-07-29T16:15:51.576Z,30.37
2018-07-29T16:16:51.607Z,30.32
2018-07-29T16:18:44.621Z,30.48
2018-07-29T16:19:44.682Z,30.50
2018-07-29T16:21:37.735Z,30.47
2018-07-29T16:22:37.784Z,30.25
2018-07-29T16:24:30.811Z,30.12
2018-07-29T16:25:30.858Z,30.00
2018-07-29T16:27:23.869Z,29.95
2018-07-29T16:28:23.942Z,29.84
2018-07-29T16:30:16.996Z,29.87
2018-07-29T16:31:17.031Z,29.76
2018-07-29T16:33:21.656Z,29.82
2018-07-29T16:34:21.708Z,29.86
2018-07-29T16:36:14.795Z,29.90
2018-07-29T16:37:14.864Z,29.93
2018-07-29T16:39:07.887Z,29.98
2018-07-29T16:40:07.891Z,29.91
2018-07-29T16:42:00.912Z,29.95
2018-07-29T16:43:00.971Z,30.08
2018-07-29T16:44:53.992Z,30.09
2018-07-29T16:45:54.048Z,30.05
2018-07-29T16:47:47.092Z,30.09
2018-07-29T16:48:47.132Z,30.08
2018-07-29T16:50:40.258Z,30.06
2018-07-29T16:51:40.390Z,30.09
2018-07-29T16:53:33.511Z,30.13
2018-07-29T16:54:33.292Z,30.03
2018-07-29T16:56:26.320Z,30.02
2018-07-29T16:57:26.378Z,30.05
2018-07-29T16:59:19.424Z,29.95
2018-07-29T17:00:19.603Z,29.90
2018-07-29T17:02:12.514Z,29.79
2018-07-29T17:03:12.555Z,29.76
2018-07-29T17:05:05.560Z,29.72
2018-07-29T17:06:05.635Z,29.68
2018-07-29T17:07:58.628Z,29.57
2018-07-29T17:08:58.725Z,29.57
2018-07-29T17:10:51.849Z,29.42
2018-07-29T17:11:51.835Z,29.42
2018-07-29T17:13:44.849Z,29.41
2018-07-29T17:14:44.917Z,29.24
2018-07-29T17:16:37.921Z,29.26
2018-07-29T17:17:37.987Z,29.14
2018-07-29T17:19:31.009Z,29.12
2018-07-29T17:20:31.066Z,29.10
2018-07-29T17:22:24.090Z,29.07
2018-07-29T17:23:24.153Z,29.07
2018-07-29T17:25:17.154Z,29.01
2018-07-29T17:26:17.224Z,29.10
2018-07-29T17:28:10.240Z,29.01
2018-07-29T17:29:10.307Z,29.07
2018-07-29T17:31:03.326Z,29.05
2018-07-29T17:32:03.382Z,29.02
2018-07-29T17:33:56.899Z,29.10
2018-07-29T17:34:56.960Z,29.08
2018-07-29T17:36:49.990Z,29.04
2018-07-29T17:37:50.075Z,29.10
2018-07-29T17:39:43.056Z,28.98
2018-07-29T17:40:43.111Z,28.98
2018-07-29T17:42:36.157Z,29.13
2018-07-29T17:43:36.190Z,29.10
2018-07-29T17:45:29.239Z,29.07
2018-07-29T17:46:29.276Z,29.05
2018-07-29T17:48:22.290Z,28.97
2018-07-29T17:49:22.352Z,28.98
2018-07-29T17:51:15.356Z,29.04
2018-07-29T17:52:15.426Z,28.97
2018-07-29T17:54:08.434Z,28.91
2018-07-29T17:55:08.497Z,28.97
2018-07-29T17:57:01.505Z,28.93
2018-07-29T17:58:01.566Z,28.85
2018-07-29T17:59:54.612Z,28.85
2018-07-29T18:00:54.637Z,28.86
2018-07-29T18:02:47.650Z,28.82
2018-07-29T18:03:47.713Z,28.74
2018-07-29T18:05:40.720Z,28.84
2018-07-29T18:06:40.787Z,28.81
2018-07-29T18:08:33.798Z,28.82
2018-07-29T18:09:33.859Z,28.82
2018-07-29T18:11:26.864Z,28.70
2018-07-29T18:12:26.937Z,28.72
2018-07-29T18:14:19.947Z,28.66
2018-07-29T18:15:20.011Z,28.79
2018-07-29T18:17:13.017Z,28.66
2018-07-29T18:18:13.087Z,28.78
2018-07-29T18:20:06.094Z,28.72
2018-07-29T18:21:06.157Z,28.74
2018-07-29T18:22:59.217Z,28.74
2018-07-29T18:23:59.230Z,28.70
2018-07-29T18:25:52.240Z,28.75
2018-07-29T18:26:52.305Z,28.75
2018-07-29T18:28:45.351Z,28.75
2018-07-29T18:29:45.418Z,28.88
2018-07-29T18:31:38.422Z,28.86
2018-07-29T18:32:38.488Z,28.79
2018-07-29T18:34:31.500Z,28.84